sensor_id;sensor_type;location;lat;lon;timestamp;P1;durP1;ratioP1;P2;durP2;ratioP2
53040;SDS011;39326;42.650;23.248;2022-11-20T00:01:42;2.10;;;1.80;;
53040;SDS011;39326;42.650;23.248;2022-11-20T00:04:08;2.50;;;1.90;;
53040;SDS011;39326;42.650;23.248;2022-11-20T00:06:35;3.10;;;1.30;;
53040;SDS011;39326;42.650;23.248;2022-11-20T00:09:00;3.33;;;1.27;;
53040;SDS011;39326;42.650;23.248;2022-11-20T00:11:27;5.03;;;1.67;;
53040;SDS011;39326;42.650;23.248;2022-11-20T00:13:54;4.60;;;1.40;;
53040;SDS011;39326;42.650;23.248;2022-11-20T00:16:23;4.73;;;4.33;;
53040;SDS011;39326;42.650;23.248;2022-11-20T00:18:50;3.30;;;1.70;;
53040;SDS011;39326;42.650;23.248;2022-11-20T00:21:16;3.93;;;1.20;;
53040;SDS011;39326;42.650;23.248;2022-11-20T00:23:45;4.13;;;1.17;;
53040;SDS011;39326;42.650;23.248;2022-11-20T00:26:15;3.10;;;1.67;;
53040;SDS011;39326;42.650;23.248;2022-11-20T00:28:42;3.40;;;1.30;;
53040;SDS011;39326;42.650;23.248;2022-11-20T00:31:12;2.40;;;1.10;;
53040;SDS011;39326;42.650;23.248;2022-11-20T00:33:39;1.70;;;1.10;;
53040;SDS011;39326;42.650;23.248;2022-11-20T00:36:06;3.93;;;1.20;;
53040;SDS011;39326;42.650;23.248;2022-11-20T00:38:34;4.30;;;1.30;;
53040;SDS011;39326;42.650;23.248;2022-11-20T00:41:01;3.27;;;1.40;;
53040;SDS011;39326;42.650;23.248;2022-11-20T00:43:28;2.40;;;1.00;;
53040;SDS011;39326;42.650;23.248;2022-11-20T00:45:59;3.33;;;1.20;;
53040;SDS011;39326;42.650;23.248;2022-11-20T00:48:26;1.67;;;1.17;;
53040;SDS011;39326;42.650;23.248;2022-11-20T00:50:51;3.80;;;1.40;;
53040;SDS011;39326;42.650;23.248;2022-11-20T00:53:17;2.60;;;1.97;;
53040;SDS011;39326;42.650;23.248;2022-11-20T00:55:43;3.37;;;2.37;;
53040;SDS011;39326;42.650;23.248;2022-11-20T00:58:20;3.87;;;1.40;;
53040;SDS011;39326;42.650;23.248;2022-11-20T01:00:46;2.77;;;1.73;;
53040;SDS011;39326;42.650;23.248;2022-11-20T01:03:11;2.28;;;1.25;;
53040;SDS011;39326;42.650;23.248;2022-11-20T01:05:37;2.90;;;1.80;;
53040;SDS011;39326;42.650;23.248;2022-11-20T01:08:02;2.07;;;1.50;;
53040;SDS011;39326;42.650;23.248;2022-11-20T01:10:28;2.27;;;1.37;;
53040;SDS011;39326;42.650;23.248;2022-11-20T01:12:53;3.77;;;1.27;;
53040;SDS011;39326;42.650;23.248;2022-11-20T01:15:39;2.13;;;1.53;;
53040;SDS011;39326;42.650;23.248;2022-11-20T01:18:04;2.37;;;1.57;;
53040;SDS011;39326;42.650;23.248;2022-11-20T01:20:33;2.40;;;1.23;;
53040;SDS011;39326;42.650;23.248;2022-11-20T01:23:00;2.20;;;1.07;;
53040;SDS011;39326;42.650;23.248;2022-11-20T01:25:26;3.30;;;1.40;;
53040;SDS011;39326;42.650;23.248;2022-11-20T01:27:51;3.47;;;1.50;;
53040;SDS011;39326;42.650;23.248;2022-11-20T01:30:17;12.90;;;11.77;;
53040;SDS011;39326;42.650;23.248;2022-11-20T01:32:42;3.17;;;1.40;;
53040;SDS011;39326;42.650;23.248;2022-11-20T01:35:08;4.67;;;1.77;;
53040;SDS011;39326;42.650;23.248;2022-11-20T01:37:34;1.00;;;0.90;;
53040;SDS011;39326;42.650;23.248;2022-11-20T01:40:00;2.70;;;1.33;;
53040;SDS011;39326;42.650;23.248;2022-11-20T01:42:25;4.30;;;1.47;;
53040;SDS011;39326;42.650;23.248;2022-11-20T01:48:12;2.07;;;1.37;;
53040;SDS011;39326;42.650;23.248;2022-11-20T01:50:38;3.47;;;1.20;;
53040;SDS011;39326;42.650;23.248;2022-11-20T01:53:06;2.83;;;1.20;;
53040;SDS011;39326;42.650;23.248;2022-11-20T01:55:36;3.13;;;1.20;;
53040;SDS011;39326;42.650;23.248;2022-11-20T01:58:05;4.43;;;1.33;;
53040;SDS011;39326;42.650;23.248;2022-11-20T02:00:31;1.60;;;1.20;;
53040;SDS011;39326;42.650;23.248;2022-11-20T02:02:57;1.80;;;1.20;;
53040;SDS011;39326;42.650;23.248;2022-11-20T02:05:33;3.30;;;1.30;;
53040;SDS011;39326;42.650;23.248;2022-11-20T02:08:04;1.87;;;1.07;;
53040;SDS011;39326;42.650;23.248;2022-11-20T02:10:30;1.57;;;1.00;;
53040;SDS011;39326;42.650;23.248;2022-11-20T02:12:56;3.53;;;1.30;;
53040;SDS011;39326;42.650;23.248;2022-11-20T02:15:41;2.33;;;1.33;;
53040;SDS011;39326;42.650;23.248;2022-11-20T02:18:07;2.17;;;1.00;;
53040;SDS011;39326;42.650;23.248;2022-11-20T02:20:34;4.60;;;1.13;;
53040;SDS011;39326;42.650;23.248;2022-11-20T02:23:03;1.97;;;1.07;;
53040;SDS011;39326;42.650;23.248;2022-11-20T02:25:32;1.90;;;1.20;;
53040;SDS011;39326;42.650;23.248;2022-11-20T02:28:00;2.80;;;1.30;;
53040;SDS011;39326;42.650;23.248;2022-11-20T02:30:26;2.53;;;1.40;;
53040;SDS011;39326;42.650;23.248;2022-11-20T02:32:51;3.15;;;1.30;;
53040;SDS011;39326;42.650;23.248;2022-11-20T02:37:48;3.63;;;1.30;;
53040;SDS011;39326;42.650;23.248;2022-11-20T02:40:16;5.43;;;1.40;;
53040;SDS011;39326;42.650;23.248;2022-11-20T02:42:41;1.93;;;1.10;;
53040;SDS011;39326;42.650;23.248;2022-11-20T02:45:07;2.40;;;1.10;;
53040;SDS011;39326;42.650;23.248;2022-11-20T02:47:33;4.23;;;1.60;;
53040;SDS011;39326;42.650;23.248;2022-11-20T02:49:59;3.10;;;1.20;;
53040;SDS011;39326;42.650;23.248;2022-11-20T02:52:24;2.53;;;1.30;;
53040;SDS011;39326;42.650;23.248;2022-11-20T02:54:50;3.47;;;1.43;;
53040;SDS011;39326;42.650;23.248;2022-11-20T02:57:15;3.40;;;1.57;;
53040;SDS011;39326;42.650;23.248;2022-11-20T02:59:41;2.33;;;1.10;;
53040;SDS011;39326;42.650;23.248;2022-11-20T03:02:06;3.17;;;1.50;;
53040;SDS011;39326;42.650;23.248;2022-11-20T03:04:32;1.87;;;1.33;;
53040;SDS011;39326;42.650;23.248;2022-11-20T03:06:57;2.40;;;1.30;;
53040;SDS011;39326;42.650;23.248;2022-11-20T03:09:23;3.77;;;1.40;;
53040;SDS011;39326;42.650;23.248;2022-11-20T03:11:48;5.23;;;1.50;;
53040;SDS011;39326;42.650;23.248;2022-11-20T03:14:14;4.60;;;1.50;;
53040;SDS011;39326;42.650;23.248;2022-11-20T03:16:39;3.03;;;1.43;;
53040;SDS011;39326;42.650;23.248;2022-11-20T03:19:05;1.87;;;1.20;;
53040;SDS011;39326;42.650;23.248;2022-11-20T03:21:32;5.17;;;1.40;;
53040;SDS011;39326;42.650;23.248;2022-11-20T03:23:58;2.90;;;1.60;;
53040;SDS011;39326;42.650;23.248;2022-11-20T03:26:24;3.00;;;1.37;;
53040;SDS011;39326;42.650;23.248;2022-11-20T03:28:52;2.37;;;1.00;;
53040;SDS011;39326;42.650;23.248;2022-11-20T03:31:20;3.37;;;1.10;;
53040;SDS011;39326;42.650;23.248;2022-11-20T03:33:47;2.37;;;1.10;;
53040;SDS011;39326;42.650;23.248;2022-11-20T03:36:14;1.60;;;0.97;;
53040;SDS011;39326;42.650;23.248;2022-11-20T03:38:40;3.77;;;1.60;;
53040;SDS011;39326;42.650;23.248;2022-11-20T03:41:10;2.70;;;1.27;;
53040;SDS011;39326;42.650;23.248;2022-11-20T03:43:37;2.97;;;1.03;;
53040;SDS011;39326;42.650;23.248;2022-11-20T03:46:03;3.43;;;1.20;;
53040;SDS011;39326;42.650;23.248;2022-11-20T03:48:29;5.03;;;1.33;;
53040;SDS011;39326;42.650;23.248;2022-11-20T03:51:08;3.13;;;1.00;;
53040;SDS011;39326;42.650;23.248;2022-11-20T03:53:33;2.70;;;1.30;;
53040;SDS011;39326;42.650;23.248;2022-11-20T03:55:59;2.87;;;1.60;;
53040;SDS011;39326;42.650;23.248;2022-11-20T03:58:24;1.33;;;1.00;;
53040;SDS011;39326;42.650;23.248;2022-11-20T04:00:49;2.87;;;1.20;;
53040;SDS011;39326;42.650;23.248;2022-11-20T04:03:15;1.50;;;1.17;;
53040;SDS011;39326;42.650;23.248;2022-11-20T04:05:40;5.80;;;1.30;;
53040;SDS011;39326;42.650;23.248;2022-11-20T04:08:05;3.67;;;1.00;;
53040;SDS011;39326;42.650;23.248;2022-11-20T04:10:31;1.73;;;0.90;;
53040;SDS011;39326;42.650;23.248;2022-11-20T04:12:56;3.83;;;1.40;;
53040;SDS011;39326;42.650;23.248;2022-11-20T04:15:22;4.43;;;1.63;;
53040;SDS011;39326;42.650;23.248;2022-11-20T04:17:47;1.80;;;1.20;;
53040;SDS011;39326;42.650;23.248;2022-11-20T04:20:12;1.97;;;1.30;;
53040;SDS011;39326;42.650;23.248;2022-11-20T04:22:38;2.83;;;1.17;;
53040;SDS011;39326;42.650;23.248;2022-11-20T04:25:03;2.80;;;1.10;;
53040;SDS011;39326;42.650;23.248;2022-11-20T04:27:30;3.00;;;1.07;;
53040;SDS011;39326;42.650;23.248;2022-11-20T04:29:55;2.07;;;1.30;;
53040;SDS011;39326;42.650;23.248;2022-11-20T04:32:21;2.13;;;0.97;;
53040;SDS011;39326;42.650;23.248;2022-11-20T04:34:46;2.77;;;1.20;;
53040;SDS011;39326;42.650;23.248;2022-11-20T04:37:12;3.27;;;1.40;;
53040;SDS011;39326;42.650;23.248;2022-11-20T04:39:37;2.77;;;1.30;;
53040;SDS011;39326;42.650;23.248;2022-11-20T04:42:02;2.53;;;1.10;;
53040;SDS011;39326;42.650;23.248;2022-11-20T04:44:47;1.37;;;0.80;;
53040;SDS011;39326;42.650;23.248;2022-11-20T04:47:12;2.57;;;1.10;;
53040;SDS011;39326;42.650;23.248;2022-11-20T04:49:37;1.63;;;1.07;;
53040;SDS011;39326;42.650;23.248;2022-11-20T04:52:03;3.03;;;1.20;;
53040;SDS011;39326;42.650;23.248;2022-11-20T04:54:28;1.93;;;0.90;;
53040;SDS011;39326;42.650;23.248;2022-11-20T04:56:54;3.43;;;1.53;;
53040;SDS011;39326;42.650;23.248;2022-11-20T04:59:19;2.67;;;1.10;;
53040;SDS011;39326;42.650;23.248;2022-11-20T05:01:44;3.73;;;1.20;;
53040;SDS011;39326;42.650;23.248;2022-11-20T05:04:10;2.70;;;1.30;;
53040;SDS011;39326;42.650;23.248;2022-11-20T05:06:35;2.10;;;1.30;;
53040;SDS011;39326;42.650;23.248;2022-11-20T05:09:01;2.57;;;1.00;;
53040;SDS011;39326;42.650;23.248;2022-11-20T05:11:27;3.37;;;1.50;;
53040;SDS011;39326;42.650;23.248;2022-11-20T05:13:54;2.33;;;1.10;;
53040;SDS011;39326;42.650;23.248;2022-11-20T05:16:21;4.67;;;1.30;;
53040;SDS011;39326;42.650;23.248;2022-11-20T05:18:48;2.10;;;1.30;;
53040;SDS011;39326;42.650;23.248;2022-11-20T05:21:15;1.50;;;0.97;;
53040;SDS011;39326;42.650;23.248;2022-11-20T05:23:41;3.50;;;1.40;;
53040;SDS011;39326;42.650;23.248;2022-11-20T05:26:11;2.47;;;1.00;;
53040;SDS011;39326;42.650;23.248;2022-11-20T05:28:38;3.00;;;1.10;;
53040;SDS011;39326;42.650;23.248;2022-11-20T05:31:07;2.07;;;1.00;;
53040;SDS011;39326;42.650;23.248;2022-11-20T05:33:35;4.23;;;1.10;;
53040;SDS011;39326;42.650;23.248;2022-11-20T05:36:01;2.97;;;1.03;;
53040;SDS011;39326;42.650;23.248;2022-11-20T05:38:29;4.23;;;1.00;;
53040;SDS011;39326;42.650;23.248;2022-11-20T05:40:55;3.33;;;1.10;;
53040;SDS011;39326;42.650;23.248;2022-11-20T05:43:20;1.67;;;1.10;;
53040;SDS011;39326;42.650;23.248;2022-11-20T05:45:52;2.93;;;1.20;;
53040;SDS011;39326;42.650;23.248;2022-11-20T05:48:18;3.87;;;1.10;;
53040;SDS011;39326;42.650;23.248;2022-11-20T05:50:44;3.40;;;1.10;;
53040;SDS011;39326;42.650;23.248;2022-11-20T05:53:09;4.00;;;1.30;;
53040;SDS011;39326;42.650;23.248;2022-11-20T05:55:35;4.50;;;1.30;;
53040;SDS011;39326;42.650;23.248;2022-11-20T05:58:00;4.83;;;1.10;;
53040;SDS011;39326;42.650;23.248;2022-11-20T06:00:25;3.40;;;1.13;;
53040;SDS011;39326;42.650;23.248;2022-11-20T06:02:51;3.90;;;1.10;;
53040;SDS011;39326;42.650;23.248;2022-11-20T06:05:16;3.43;;;1.23;;
53040;SDS011;39326;42.650;23.248;2022-11-20T06:07:42;2.20;;;0.90;;
53040;SDS011;39326;42.650;23.248;2022-11-20T06:10:07;2.83;;;1.30;;
53040;SDS011;39326;42.650;23.248;2022-11-20T06:12:33;3.20;;;1.10;;
53040;SDS011;39326;42.650;23.248;2022-11-20T06:14:59;4.03;;;1.20;;
53040;SDS011;39326;42.650;23.248;2022-11-20T06:17:25;3.83;;;1.00;;
53040;SDS011;39326;42.650;23.248;2022-11-20T06:19:50;4.30;;;1.23;;
53040;SDS011;39326;42.650;23.248;2022-11-20T06:22:15;3.33;;;1.40;;
53040;SDS011;39326;42.650;23.248;2022-11-20T06:24:41;3.23;;;1.00;;
53040;SDS011;39326;42.650;23.248;2022-11-20T06:27:06;3.40;;;1.10;;
53040;SDS011;39326;42.650;23.248;2022-11-20T06:29:32;3.67;;;1.20;;
53040;SDS011;39326;42.650;23.248;2022-11-20T06:31:57;4.10;;;1.40;;
53040;SDS011;39326;42.650;23.248;2022-11-20T06:34:22;2.97;;;0.90;;
53040;SDS011;39326;42.650;23.248;2022-11-20T06:36:48;2.77;;;1.57;;
53040;SDS011;39326;42.650;23.248;2022-11-20T06:39:13;2.70;;;0.90;;
53040;SDS011;39326;42.650;23.248;2022-11-20T06:41:39;2.57;;;1.17;;
53040;SDS011;39326;42.650;23.248;2022-11-20T06:44:04;4.87;;;1.30;;
53040;SDS011;39326;42.650;23.248;2022-11-20T06:46:30;2.20;;;1.10;;
53040;SDS011;39326;42.650;23.248;2022-11-20T06:48:56;2.90;;;1.10;;
53040;SDS011;39326;42.650;23.248;2022-11-20T06:51:21;3.27;;;1.00;;
53040;SDS011;39326;42.650;23.248;2022-11-20T06:53:48;3.17;;;1.03;;
53040;SDS011;39326;42.650;23.248;2022-11-20T06:56:13;1.80;;;0.90;;
53040;SDS011;39326;42.650;23.248;2022-11-20T06:58:39;3.30;;;1.10;;
53040;SDS011;39326;42.650;23.248;2022-11-20T07:01:06;1.97;;;0.90;;
53040;SDS011;39326;42.650;23.248;2022-11-20T07:03:33;1.77;;;0.90;;
53040;SDS011;39326;42.650;23.248;2022-11-20T07:05:59;2.37;;;1.13;;
53040;SDS011;39326;42.650;23.248;2022-11-20T07:08:26;1.93;;;0.90;;
53040;SDS011;39326;42.650;23.248;2022-11-20T07:10:51;2.50;;;1.30;;
53040;SDS011;39326;42.650;23.248;2022-11-20T07:13:17;2.77;;;1.33;;
53040;SDS011;39326;42.650;23.248;2022-11-20T07:15:43;3.00;;;1.10;;
53040;SDS011;39326;42.650;23.248;2022-11-20T07:18:08;3.70;;;1.23;;
53040;SDS011;39326;42.650;23.248;2022-11-20T07:20:34;2.83;;;1.00;;
53040;SDS011;39326;42.650;23.248;2022-11-20T07:22:59;1.90;;;1.07;;
53040;SDS011;39326;42.650;23.248;2022-11-20T07:25:25;4.63;;;1.20;;
53040;SDS011;39326;42.650;23.248;2022-11-20T07:27:51;5.67;;;1.50;;
53040;SDS011;39326;42.650;23.248;2022-11-20T07:30:17;3.70;;;1.20;;
53040;SDS011;39326;42.650;23.248;2022-11-20T07:32:46;3.57;;;1.30;;
53040;SDS011;39326;42.650;23.248;2022-11-20T07:35:12;2.27;;;1.30;;
53040;SDS011;39326;42.650;23.248;2022-11-20T07:37:37;3.63;;;1.13;;
53040;SDS011;39326;42.650;23.248;2022-11-20T07:40:02;3.80;;;1.47;;
53040;SDS011;39326;42.650;23.248;2022-11-20T07:42:28;7.73;;;2.00;;
53040;SDS011;39326;42.650;23.248;2022-11-20T07:44:54;4.37;;;1.60;;
53040;SDS011;39326;42.650;23.248;2022-11-20T07:47:19;4.07;;;1.17;;
53040;SDS011;39326;42.650;23.248;2022-11-20T07:49:44;2.33;;;0.97;;
53040;SDS011;39326;42.650;23.248;2022-11-20T07:52:10;3.97;;;1.60;;
53040;SDS011;39326;42.650;23.248;2022-11-20T07:54:35;6.43;;;1.50;;
53040;SDS011;39326;42.650;23.248;2022-11-20T07:57:00;3.43;;;1.67;;
53040;SDS011;39326;42.650;23.248;2022-11-20T07:59:26;4.07;;;1.80;;
53040;SDS011;39326;42.650;23.248;2022-11-20T08:01:51;5.00;;;1.70;;
53040;SDS011;39326;42.650;23.248;2022-11-20T08:04:17;3.93;;;1.63;;
53040;SDS011;39326;42.650;23.248;2022-11-20T08:06:42;3.93;;;1.23;;
53040;SDS011;39326;42.650;23.248;2022-11-20T08:09:08;5.03;;;1.53;;
53040;SDS011;39326;42.650;23.248;2022-11-20T08:11:33;4.30;;;1.60;;
53040;SDS011;39326;42.650;23.248;2022-11-20T08:14:17;4.07;;;1.27;;
53040;SDS011;39326;42.650;23.248;2022-11-20T08:16:43;6.17;;;1.80;;
53040;SDS011;39326;42.650;23.248;2022-11-20T08:19:11;3.58;;;1.23;;
53040;SDS011;39326;42.650;23.248;2022-11-20T08:21:37;3.23;;;1.63;;
53040;SDS011;39326;42.650;23.248;2022-11-20T08:24:03;4.53;;;1.63;;
53040;SDS011;39326;42.650;23.248;2022-11-20T08:26:29;5.27;;;1.47;;
53040;SDS011;39326;42.650;23.248;2022-11-20T08:28:55;3.30;;;1.60;;
53040;SDS011;39326;42.650;23.248;2022-11-20T08:31:21;4.57;;;1.20;;
53040;SDS011;39326;42.650;23.248;2022-11-20T08:33:47;4.03;;;1.53;;
53040;SDS011;39326;42.650;23.248;2022-11-20T08:36:13;5.40;;;2.00;;
53040;SDS011;39326;42.650;23.248;2022-11-20T08:38:38;6.00;;;2.00;;
53040;SDS011;39326;42.650;23.248;2022-11-20T08:41:04;5.07;;;1.70;;
53040;SDS011;39326;42.650;23.248;2022-11-20T08:43:49;8.37;;;2.30;;
53040;SDS011;39326;42.650;23.248;2022-11-20T08:46:15;9.27;;;2.60;;
53040;SDS011;39326;42.650;23.248;2022-11-20T08:48:41;8.07;;;2.30;;
53040;SDS011;39326;42.650;23.248;2022-11-20T08:51:07;7.07;;;2.07;;
53040;SDS011;39326;42.650;23.248;2022-11-20T08:53:32;5.27;;;2.30;;
53040;SDS011;39326;42.650;23.248;2022-11-20T08:55:58;4.87;;;2.60;;
53040;SDS011;39326;42.650;23.248;2022-11-20T08:58:23;5.70;;;2.50;;
53040;SDS011;39326;42.650;23.248;2022-11-20T09:00:49;4.63;;;2.50;;
53040;SDS011;39326;42.650;23.248;2022-11-20T09:03:14;6.83;;;2.90;;
53040;SDS011;39326;42.650;23.248;2022-11-20T09:05:40;6.20;;;2.47;;
53040;SDS011;39326;42.650;23.248;2022-11-20T09:08:05;4.67;;;2.40;;
53040;SDS011;39326;42.650;23.248;2022-11-20T09:10:31;5.43;;;2.30;;
53040;SDS011;39326;42.650;23.248;2022-11-20T09:12:57;5.97;;;3.03;;
53040;SDS011;39326;42.650;23.248;2022-11-20T09:15:24;5.07;;;2.13;;
53040;SDS011;39326;42.650;23.248;2022-11-20T09:17:54;5.10;;;2.33;;
53040;SDS011;39326;42.650;23.248;2022-11-20T09:20:21;4.77;;;1.60;;
53040;SDS011;39326;42.650;23.248;2022-11-20T09:22:46;4.20;;;1.43;;
53040;SDS011;39326;42.650;23.248;2022-11-20T09:25:12;4.10;;;1.10;;
53040;SDS011;39326;42.650;23.248;2022-11-20T09:27:37;2.87;;;1.03;;
53040;SDS011;39326;42.650;23.248;2022-11-20T09:30:03;3.93;;;1.50;;
53040;SDS011;39326;42.650;23.248;2022-11-20T09:32:29;3.17;;;1.47;;
53040;SDS011;39326;42.650;23.248;2022-11-20T09:34:54;2.70;;;1.20;;
53040;SDS011;39326;42.650;23.248;2022-11-20T09:37:20;2.93;;;1.43;;
53040;SDS011;39326;42.650;23.248;2022-11-20T09:39:45;3.63;;;1.37;;
53040;SDS011;39326;42.650;23.248;2022-11-20T09:42:14;5.10;;;1.80;;
53040;SDS011;39326;42.650;23.248;2022-11-20T09:50:31;4.73;;;2.23;;
53040;SDS011;39326;42.650;23.248;2022-11-20T09:55:38;7.83;;;2.30;;
53040;SDS011;39326;42.650;23.248;2022-11-20T09:58:15;6.97;;;2.50;;
53040;SDS011;39326;42.650;23.248;2022-11-20T10:00:50;6.57;;;2.40;;
53040;SDS011;39326;42.650;23.248;2022-11-20T10:03:19;7.30;;;2.70;;
53040;SDS011;39326;42.650;23.248;2022-11-20T10:05:55;6.17;;;2.40;;
53040;SDS011;39326;42.650;23.248;2022-11-20T10:08:25;6.47;;;2.63;;
53040;SDS011;39326;42.650;23.248;2022-11-20T10:18:51;7.70;;;4.00;;
53040;SDS011;39326;42.650;23.248;2022-11-20T10:30:14;8.80;;;3.30;;
53040;SDS011;39326;42.650;23.248;2022-11-20T10:32:47;10.73;;;3.70;;
53040;SDS011;39326;42.650;23.248;2022-11-20T10:35:21;7.73;;;3.37;;
53040;SDS011;39326;42.650;23.248;2022-11-20T10:37:54;6.03;;;3.40;;
53040;SDS011;39326;42.650;23.248;2022-11-20T10:40:25;8.60;;;3.77;;
53040;SDS011;39326;42.650;23.248;2022-11-20T10:43:38;6.63;;;3.80;;
53040;SDS011;39326;42.650;23.248;2022-11-20T10:48:44;6.87;;;4.00;;
53040;SDS011;39326;42.650;23.248;2022-11-20T10:56:50;10.53;;;4.20;;
53040;SDS011;39326;42.650;23.248;2022-11-20T11:01:52;8.93;;;4.63;;
53040;SDS011;39326;42.650;23.248;2022-11-20T11:04:30;9.77;;;3.40;;
53040;SDS011;39326;42.650;23.248;2022-11-20T11:10:00;3.03;;;1.10;;
53040;SDS011;39326;42.650;23.248;2022-11-20T11:12:27;4.73;;;1.40;;
53040;SDS011;39326;42.650;23.248;2022-11-20T11:14:56;1.87;;;0.87;;
53040;SDS011;39326;42.650;23.248;2022-11-20T11:22:56;1.73;;;0.63;;
53040;SDS011;39326;42.650;23.248;2022-11-20T11:25:28;2.73;;;1.00;;
53040;SDS011;39326;42.650;23.248;2022-11-20T11:28:02;3.03;;;0.93;;
53040;SDS011;39326;42.650;23.248;2022-11-20T11:30:44;2.20;;;0.80;;
53040;SDS011;39326;42.650;23.248;2022-11-20T11:33:18;2.70;;;0.87;;
53040;SDS011;39326;42.650;23.248;2022-11-20T11:35:46;3.57;;;0.63;;
53040;SDS011;39326;42.650;23.248;2022-11-20T11:38:15;3.90;;;1.03;;
53040;SDS011;39326;42.650;23.248;2022-11-20T11:40:43;2.17;;;0.80;;
53040;SDS011;39326;42.650;23.248;2022-11-20T11:43:49;2.67;;;0.73;;
53040;SDS011;39326;42.650;23.248;2022-11-20T11:49:09;4.43;;;0.80;;
53040;SDS011;39326;42.650;23.248;2022-11-20T11:54:32;2.73;;;0.70;;
53040;SDS011;39326;42.650;23.248;2022-11-20T11:57:00;2.13;;;0.70;;
53040;SDS011;39326;42.650;23.248;2022-11-20T11:59:39;4.33;;;1.17;;
53040;SDS011;39326;42.650;23.248;2022-11-20T12:02:12;5.27;;;1.30;;
53040;SDS011;39326;42.650;23.248;2022-11-20T12:04:54;3.37;;;1.43;;
53040;SDS011;39326;42.650;23.248;2022-11-20T12:09:55;4.57;;;1.00;;
53040;SDS011;39326;42.650;23.248;2022-11-20T12:12:32;2.93;;;1.50;;
53040;SDS011;39326;42.650;23.248;2022-11-20T12:15:04;5.10;;;2.10;;
53040;SDS011;39326;42.650;23.248;2022-11-20T12:17:34;2.23;;;0.73;;
53040;SDS011;39326;42.650;23.248;2022-11-20T12:20:00;2.27;;;0.60;;
53040;SDS011;39326;42.650;23.248;2022-11-20T12:30:31;2.97;;;1.10;;
53040;SDS011;39326;42.650;23.248;2022-11-20T13:06:37;4.93;;;1.50;;
53040;SDS011;39326;42.650;23.248;2022-11-20T13:09:06;5.87;;;1.57;;
53040;SDS011;39326;42.650;23.248;2022-11-20T13:11:41;4.70;;;1.80;;
53040;SDS011;39326;42.650;23.248;2022-11-20T13:16:58;5.97;;;2.53;;
53040;SDS011;39326;42.650;23.248;2022-11-20T13:19:28;11.30;;;4.10;;
53040;SDS011;39326;42.650;23.248;2022-11-20T13:21:54;5.43;;;3.07;;
53040;SDS011;39326;42.650;23.248;2022-11-20T13:30:02;8.33;;;3.30;;
53040;SDS011;39326;42.650;23.248;2022-11-20T13:32:47;9.67;;;4.77;;
53040;SDS011;39326;42.650;23.248;2022-11-20T13:35:23;13.97;;;7.27;;
53040;SDS011;39326;42.650;23.248;2022-11-20T13:37:59;6.43;;;5.13;;
53040;SDS011;39326;42.650;23.248;2022-11-20T13:40:29;10.00;;;8.13;;
53040;SDS011;39326;42.650;23.248;2022-11-20T13:45:55;12.80;;;8.73;;
53040;SDS011;39326;42.650;23.248;2022-11-20T13:48:24;10.00;;;7.83;;
53040;SDS011;39326;42.650;23.248;2022-11-20T13:59:37;9.03;;;5.57;;
53040;SDS011;39326;42.650;23.248;2022-11-20T14:02:12;9.43;;;6.03;;
53040;SDS011;39326;42.650;23.248;2022-11-20T14:04:42;7.90;;;5.50;;
53040;SDS011;39326;42.650;23.248;2022-11-20T14:07:10;8.33;;;5.07;;
53040;SDS011;39326;42.650;23.248;2022-11-20T14:09:36;8.33;;;4.83;;
53040;SDS011;39326;42.650;23.248;2022-11-20T14:12:02;7.03;;;5.17;;
53040;SDS011;39326;42.650;23.248;2022-11-20T14:14:30;8.53;;;5.63;;
53040;SDS011;39326;42.650;23.248;2022-11-20T14:17:05;7.03;;;5.60;;
53040;SDS011;39326;42.650;23.248;2022-11-20T14:19:32;8.77;;;5.00;;
53040;SDS011;39326;42.650;23.248;2022-11-20T14:22:08;9.47;;;5.33;;
53040;SDS011;39326;42.650;23.248;2022-11-20T14:24:39;7.77;;;5.20;;
53040;SDS011;39326;42.650;23.248;2022-11-20T14:27:09;7.77;;;4.93;;
53040;SDS011;39326;42.650;23.248;2022-11-20T14:29:38;7.10;;;4.93;;
53040;SDS011;39326;42.650;23.248;2022-11-20T14:32:04;6.63;;;4.40;;
53040;SDS011;39326;42.650;23.248;2022-11-20T14:34:31;5.60;;;2.70;;
53040;SDS011;39326;42.650;23.248;2022-11-20T14:37:01;6.30;;;3.27;;
53040;SDS011;39326;42.650;23.248;2022-11-20T14:39:30;3.60;;;3.30;;
53040;SDS011;39326;42.650;23.248;2022-11-20T14:41:58;2.20;;;1.70;;
53040;SDS011;39326;42.650;23.248;2022-11-20T14:44:26;3.13;;;2.10;;
53040;SDS011;39326;42.650;23.248;2022-11-20T14:46:54;3.20;;;2.80;;
53040;SDS011;39326;42.650;23.248;2022-11-20T14:49:20;5.37;;;2.53;;
53040;SDS011;39326;42.650;23.248;2022-11-20T14:51:46;3.53;;;2.00;;
53040;SDS011;39326;42.650;23.248;2022-11-20T14:54:47;3.67;;;1.50;;
53040;SDS011;39326;42.650;23.248;2022-11-20T14:57:22;2.40;;;1.63;;
53040;SDS011;39326;42.650;23.248;2022-11-20T15:02:43;2.97;;;1.60;;
53040;SDS011;39326;42.650;23.248;2022-11-20T15:05:10;2.30;;;1.40;;
53040;SDS011;39326;42.650;23.248;2022-11-20T15:07:37;2.77;;;1.40;;
53040;SDS011;39326;42.650;23.248;2022-11-20T15:10:07;2.10;;;1.90;;
53040;SDS011;39326;42.650;23.248;2022-11-20T15:12:38;3.70;;;1.70;;
53040;SDS011;39326;42.650;23.248;2022-11-20T15:15:11;3.50;;;1.47;;
53040;SDS011;39326;42.650;23.248;2022-11-20T15:17:38;3.63;;;1.40;;
53040;SDS011;39326;42.650;23.248;2022-11-20T15:20:08;1.43;;;1.10;;
53040;SDS011;39326;42.650;23.248;2022-11-20T15:22:40;1.23;;;1.00;;
53040;SDS011;39326;42.650;23.248;2022-11-20T15:25:15;1.17;;;1.00;;
53040;SDS011;39326;42.650;23.248;2022-11-20T15:27:42;2.47;;;1.50;;
53040;SDS011;39326;42.650;23.248;2022-11-20T15:30:18;2.37;;;1.50;;
53040;SDS011;39326;42.650;23.248;2022-11-20T15:32:44;2.40;;;1.40;;
53040;SDS011;39326;42.650;23.248;2022-11-20T15:35:13;3.50;;;1.73;;
53040;SDS011;39326;42.650;23.248;2022-11-20T15:37:39;2.47;;;2.10;;
53040;SDS011;39326;42.650;23.248;2022-11-20T15:40:06;3.33;;;2.00;;
53040;SDS011;39326;42.650;23.248;2022-11-20T15:42:32;4.63;;;2.00;;
53040;SDS011;39326;42.650;23.248;2022-11-20T15:44:58;5.50;;;2.40;;
53040;SDS011;39326;42.650;23.248;2022-11-20T15:47:27;3.03;;;1.70;;
53040;SDS011;39326;42.650;23.248;2022-11-20T15:49:56;1.97;;;1.50;;
53040;SDS011;39326;42.650;23.248;2022-11-20T15:52:21;2.30;;;1.30;;
53040;SDS011;39326;42.650;23.248;2022-11-20T15:54:47;1.90;;;1.50;;
53040;SDS011;39326;42.650;23.248;2022-11-20T15:57:12;1.40;;;1.20;;
53040;SDS011;39326;42.650;23.248;2022-11-20T15:59:38;3.47;;;1.33;;
53040;SDS011;39326;42.650;23.248;2022-11-20T16:02:10;3.07;;;1.00;;
53040;SDS011;39326;42.650;23.248;2022-11-20T16:04:36;0.93;;;0.57;;
53040;SDS011;39326;42.650;23.248;2022-11-20T16:07:02;1.50;;;0.80;;
53040;SDS011;39326;42.650;23.248;2022-11-20T16:09:28;0.80;;;0.40;;
53040;SDS011;39326;42.650;23.248;2022-11-20T16:11:53;0.97;;;0.70;;
53040;SDS011;39326;42.650;23.248;2022-11-20T16:14:19;0.60;;;0.43;;
53040;SDS011;39326;42.650;23.248;2022-11-20T16:17:03;0.50;;;0.40;;
53040;SDS011;39326;42.650;23.248;2022-11-20T16:19:28;0.30;;;0.30;;
53040;SDS011;39326;42.650;23.248;2022-11-20T16:21:53;0.57;;;0.50;;
53040;SDS011;39326;42.650;23.248;2022-11-20T16:24:19;0.40;;;0.40;;
53040;SDS011;39326;42.650;23.248;2022-11-20T16:26:44;1.33;;;0.67;;
53040;SDS011;39326;42.650;23.248;2022-11-20T16:29:10;1.07;;;0.50;;
53040;SDS011;39326;42.650;23.248;2022-11-20T16:31:36;0.73;;;0.43;;
53040;SDS011;39326;42.650;23.248;2022-11-20T16:34:03;0.60;;;0.50;;
53040;SDS011;39326;42.650;23.248;2022-11-20T16:36:31;0.60;;;0.40;;
53040;SDS011;39326;42.650;23.248;2022-11-20T16:38:58;11.93;;;10.73;;
53040;SDS011;39326;42.650;23.248;2022-11-20T16:41:26;3.30;;;3.00;;